Time;durP1;ratioP1;P1;durP2;ratioP2;P2;SDS_P1;SDS_P2;PMS_P1;PMS_P2;Temp;Humidity;BMP_temperature;BMP_pressure;BME280_temperature;BME280_humidity;BME280_pressure;Samples;Min_cycle;Max_cycle;Signal;HPM_P1;HPM_P2
2022/07/19 00:01:37;;;;;;;6.00;4.22;;;18.10;99.90;;;;;;5072380;28;20067;-76
2022/07/19 00:04:02;;;;;;;7.38;3.70;;;18.10;99.90;;;;;;5058995;28;20062;-76
2022/07/19 00:06:28;;;;;;;6.45;4.38;;;18.00;99.90;;;;;;5053627;28;20483;-76
2022/07/19 00:08:54;;;;;;;5.40;3.65;;;18.10;99.90;;;;;;5053207;28;20459;-76
2022/07/19 00:11:19;;;;;;;9.85;4.25;;;18.00;99.90;;;;;;5068914;28;20471;-77
2022/07/19 00:13:45;;;;;;;13.15;4.47;;;18.00;99.90;;;;;;5071951;28;20256;-77
2022/07/19 00:16:10;;;;;;;7.63;4.00;;;17.90;99.90;;;;;;5068406;28;20493;-76
2022/07/19 00:18:36;;;;;;;7.78;4.60;;;17.90;99.90;;;;;;5074708;28;20070;-77
2022/07/19 00:21:02;;;;;;;7.85;4.85;;;17.90;99.90;;;;;;5076904;28;20036;-78
2022/07/19 00:23:27;;;;;;;7.85;4.10;;;17.80;99.90;;;;;;5060994;28;20580;-79
2022/07/19 00:25:53;;;;;;;6.45;3.75;;;17.80;99.90;;;;;;5077177;28;20065;-79
2022/07/19 00:28:19;;;;;;;11.13;4.85;;;17.80;99.90;;;;;;5076701;28;20047;-78
2022/07/19 00:30:45;;;;;;;8.38;5.07;;;17.80;99.90;;;;;;5075287;28;20048;-79
2022/07/19 00:33:10;;;;;;;6.10;4.47;;;17.80;99.90;;;;;;5077142;28;20046;-78
2022/07/19 00:35:37;;;;;;;8.10;4.47;;;17.80;99.90;;;;;;5067943;28;20140;-79
2022/07/19 00:38:08;;;;;;;9.25;5.10;;;17.90;99.90;;;;;;5097318;28;20055;-79
2022/07/19 00:40:34;;;;;;;8.13;4.85;;;17.80;99.90;;;;;;5057984;28;20060;-79
2022/07/19 00:43:00;;;;;;;6.40;4.22;;;17.80;99.90;;;;;;5076559;28;20125;-79
2022/07/19 00:45:26;;;;;;;7.72;4.45;;;17.80;99.90;;;;;;5059169;28;20087;-79
2022/07/19 00:47:51;;;;;;;8.88;5.45;;;17.80;99.90;;;;;;5061588;28;20534;-79
2022/07/19 00:50:18;;;;;;;10.88;4.72;;;17.80;99.90;;;;;;5060040;28;20048;-79
2022/07/19 00:52:48;;;;;;;7.65;4.60;;;17.70;99.90;;;;;;5072708;28;20123;-79
2022/07/19 00:55:14;;;;;;;5.78;4.47;;;17.70;99.90;;;;;;5080745;28;20048;-78
2022/07/19 00:57:41;;;;;;;13.13;4.70;;;17.70;99.90;;;;;;5081684;28;20036;-77
2022/07/19 01:00:09;;;;;;;8.85;4.65;;;17.60;99.90;;;;;;5096058;28;20032;-78
2022/07/19 01:02:35;;;;;;;6.93;4.75;;;17.60;99.90;;;;;;5078901;28;20093;-80
2022/07/19 01:05:01;;;;;;;8.00;4.95;;;17.60;99.90;;;;;;5075442;28;20040;-80
2022/07/19 01:07:27;;;;;;;6.07;4.47;;;17.60;99.90;;;;;;5071964;28;20042;-80
2022/07/19 01:09:52;;;;;;;7.65;4.90;;;17.50;99.90;;;;;;5070053;28;20037;-79
2022/07/19 01:12:22;;;;;;;8.32;5.70;;;17.50;99.90;;;;;;5066900;28;20039;-79
2022/07/19 01:14:48;;;;;;;7.72;4.47;;;17.50;99.90;;;;;;5075511;28;20097;-77
2022/07/19 01:17:14;;;;;;;7.38;5.03;;;17.60;99.90;;;;;;5083970;28;20048;-79
2022/07/19 01:19:43;;;;;;;10.55;4.60;;;17.50;99.90;;;;;;5075081;28;20096;-79
2022/07/19 01:22:08;;;;;;;8.75;5.32;;;17.50;99.90;;;;;;5072002;28;20036;-79
2022/07/19 01:24:34;;;;;;;12.80;5.50;;;17.40;99.90;;;;;;5089887;28;20481;-79
2022/07/19 01:26:59;;;;;;;8.57;4.95;;;17.50;99.90;;;;;;5076864;28;20040;-80
2022/07/19 01:29:25;;;;;;;8.93;4.55;;;17.50;99.90;;;;;;5078172;28;20048;-79
2022/07/19 01:31:51;;;;;;;10.93;5.78;;;17.50;99.90;;;;;;5065902;28;20072;-79
2022/07/19 01:34:17;;;;;;;12.82;5.80;;;17.50;99.90;;;;;;5059198;28;20127;-79
2022/07/19 01:36:42;;;;;;;7.30;4.55;;;17.40;99.90;;;;;;5043242;28;20047;-79
2022/07/19 01:39:08;;;;;;;8.98;5.05;;;17.40;99.90;;;;;;5059487;28;20032;-79
2022/07/19 01:41:34;;;;;;;9.60;5.45;;;17.40;99.90;;;;;;5058887;28;20040;-80
2022/07/19 01:43:59;;;;;;;9.00;5.07;;;17.40;99.90;;;;;;5059861;28;20036;-79
2022/07/19 01:46:25;;;;;;;9.88;4.70;;;17.30;99.90;;;;;;5059268;28;20047;-80
2022/07/19 01:48:51;;;;;;;8.02;5.43;;;17.30;99.90;;;;;;5059171;28;20089;-80
2022/07/19 01:51:16;;;;;;;8.52;4.88;;;17.30;99.90;;;;;;5058746;28;20535;-79
2022/07/19 01:53:42;;;;;;;9.15;6.10;;;17.30;99.90;;;;;;5042780;28;20108;-79
2022/07/19 01:56:07;;;;;;;8.68;4.85;;;17.30;99.90;;;;;;5058997;28;20045;-79
2022/07/19 01:58:33;;;;;;;12.50;5.22;;;17.40;99.90;;;;;;5058793;28;20089;-79
2022/07/19 02:00:59;;;;;;;8.75;4.95;;;17.30;99.90;;;;;;5058463;28;20075;-79
2022/07/19 02:03:24;;;;;;;8.70;5.60;;;17.30;99.90;;;;;;5059110;28;20040;-79
2022/07/19 02:05:50;;;;;;;9.23;5.45;;;17.40;99.90;;;;;;5059239;28;20047;-79
2022/07/19 02:08:16;;;;;;;8.98;5.32;;;17.40;99.90;;;;;;5059571;28;20054;-80
2022/07/19 02:10:41;;;;;;;7.43;4.57;;;17.40;99.90;;;;;;5042446;28;20400;-78
2022/07/19 02:13:07;;;;;;;10.68;5.30;;;17.30;99.90;;;;;;5059787;28;20048;-78
2022/07/19 02:15:33;;;;;;;8.95;5.72;;;17.30;99.90;;;;;;5060080;28;20040;-80
2022/07/19 02:17:59;;;;;;;8.35;4.97;;;17.20;99.90;;;;;;5059764;28;20041;-79
2022/07/19 02:20:25;;;;;;;9.73;5.03;;;17.20;99.90;;;;;;5077373;28;20036;-79
2022/07/19 02:22:50;;;;;;;10.70;5.38;;;17.20;99.90;;;;;;5042405;28;20043;-79
2022/07/19 02:25:16;;;;;;;9.88;5.72;;;17.20;99.90;;;;;;5059552;28;20076;-80
2022/07/19 02:27:42;;;;;;;9.85;5.78;;;17.20;99.90;;;;;;5077175;28;20106;-78
2022/07/19 02:30:09;;;;;;;9.40;5.60;;;17.10;99.90;;;;;;5058845;28;20494;-79
2022/07/19 02:32:35;;;;;;;8.18;5.20;;;17.10;99.90;;;;;;5059247;28;20041;-79
2022/07/19 02:35:00;;;;;;;8.23;4.90;;;17.00;99.90;;;;;;5042287;28;20044;-79
2022/07/19 02:37:26;;;;;;;9.07;5.20;;;17.00;99.90;;;;;;5058476;28;20495;-78
2022/07/19 02:39:51;;;;;;;8.55;5.00;;;17.00;99.90;;;;;;5059296;28;20044;-79
2022/07/19 02:42:17;;;;;;;10.73;5.65;;;16.90;99.90;;;;;;5059862;28;20111;-79
2022/07/19 02:44:43;;;;;;;6.00;4.82;;;16.90;99.90;;;;;;5043815;28;20048;-79
2022/07/19 02:47:08;;;;;;;7.90;5.25;;;16.80;99.90;;;;;;5059065;28;20048;-78
2022/07/19 02:49:34;;;;;;;10.60;5.50;;;16.80;99.90;;;;;;5077194;28;20473;-79
2022/07/19 02:51:59;;;;;;;7.00;4.97;;;16.90;99.90;;;;;;5059255;28;20550;-79
2022/07/19 02:54:25;;;;;;;7.90;4.47;;;16.90;99.90;;;;;;5059160;28;20044;-79
2022/07/19 02:56:51;;;;;;;6.25;4.38;;;16.80;99.90;;;;;;5059231;28;20047;-79
2022/07/19 02:59:16;;;;;;;8.43;4.68;;;16.70;99.90;;;;;;5059413;28;20095;-78
2022/07/19 03:01:42;;;;;;;8.77;5.03;;;16.80;99.90;;;;;;5059208;28;20070;-79
2022/07/19 03:04:07;;;;;;;10.32;5.55;;;16.80;99.90;;;;;;5043482;28;20040;-79
2022/07/19 03:06:33;;;;;;;7.57;4.63;;;16.80;99.90;;;;;;5059502;28;20499;-79
2022/07/19 03:08:59;;;;;;;9.68;4.40;;;16.90;99.90;;;;;;5059635;28;20052;-78
2022/07/19 03:11:24;;;;;;;8.77;4.88;;;16.80;99.90;;;;;;5076887;28;20044;-79
2022/07/19 03:13:50;;;;;;;9.10;4.72;;;16.70;99.90;;;;;;5059309;28;20036;-79
2022/07/19 03:16:15;;;;;;;10.88;3.85;;;16.70;99.90;;;;;;5059743;28;20044;-79
2022/07/19 03:18:41;;;;;;;8.98;4.57;;;16.60;99.90;;;;;;5059086;28;20097;-78
2022/07/19 03:21:07;;;;;;;9.45;4.47;;;16.60;99.90;;;;;;5042410;28;20170;-79
2022/07/19 03:23:34;;;;;;;7.35;5.65;;;16.40;99.90;;;;;;5059325;28;20166;-78
2022/07/19 03:26:00;;;;;;;8.52;4.45;;;16.50;99.90;;;;;;5059001;28;20169;-78
2022/07/19 03:28:26;;;;;;;13.23;5.38;;;16.50;99.90;;;;;;5058422;28;20094;-79
2022/07/19 03:30:52;;;;;;;9.35;5.18;;;16.40;99.90;;;;;;5058848;28;20483;-78
2022/07/19 03:33:18;;;;;;;10.77;4.55;;;16.40;99.90;;;;;;5058489;28;20408;-78
2022/07/19 03:35:45;;;;;;;8.27;5.15;;;16.40;99.90;;;;;;5060030;28;20040;-78
2022/07/19 03:38:12;;;;;;;7.20;4.63;;;16.40;99.90;;;;;;5059081;28;20040;-79
2022/07/19 03:40:38;;;;;;;10.05;4.70;;;16.40;99.90;;;;;;5058888;28;20040;-78
2022/07/19 03:43:04;;;;;;;7.93;4.70;;;16.40;99.90;;;;;;5058799;28;20047;-79
2022/07/19 03:45:30;;;;;;;13.60;5.53;;;16.50;99.90;;;;;;5059205;28;20123;-79
2022/07/19 03:47:56;;;;;;;8.70;5.53;;;16.50;99.90;;;;;;5058443;28;20048;-79
2022/07/19 03:50:21;;;;;;;10.18;4.85;;;16.50;99.90;;;;;;5058655;28;20044;-79
2022/07/19 03:52:47;;;;;;;8.63;4.72;;;16.50;99.90;;;;;;5058824;28;20045;-79
2022/07/19 03:55:12;;;;;;;10.13;5.07;;;16.50;99.90;;;;;;5058867;28;20044;-79
2022/07/19 03:57:38;;;;;;;10.93;5.57;;;16.50;99.90;;;;;;5058868;28;20047;-77
2022/07/19 04:00:05;;;;;;;13.30;5.47;;;16.50;99.90;;;;;;5058709;28;20511;-79
2022/07/19 04:02:30;;;;;;;10.80;5.30;;;16.50;99.90;;;;;;5058874;28;20048;-78
2022/07/19 04:04:56;;;;;;;9.68;5.15;;;16.50;99.90;;;;;;5058007;28;20145;-79
2022/07/19 04:07:22;;;;;;;9.85;4.82;;;16.50;99.90;;;;;;5058660;28;20098;-79
2022/07/19 04:09:47;;;;;;;10.18;5.50;;;16.60;99.90;;;;;;5041373;28;20127;-79
2022/07/19 04:12:13;;;;;;;9.93;5.20;;;16.60;99.90;;;;;;5040841;28;20051;-79
2022/07/19 04:14:38;;;;;;;8.88;5.93;;;16.50;99.90;;;;;;5058257;28;20124;-79
2022/07/19 04:17:04;;;;;;;10.45;5.32;;;16.50;99.90;;;;;;5057508;28;20044;-78
2022/07/19 04:19:30;;;;;;;8.23;5.28;;;16.60;99.90;;;;;;5057723;28;20047;-79
2022/07/19 04:21:56;;;;;;;10.18;5.63;;;16.70;99.90;;;;;;5057811;28;20159;-79
2022/07/19 04:24:22;;;;;;;8.30;4.93;;;16.70;99.90;;;;;;5058373;28;20158;-79
2022/07/19 04:26:47;;;;;;;10.73;5.63;;;16.70;99.90;;;;;;5057674;28;20052;-79
2022/07/19 04:29:13;;;;;;;9.50;5.90;;;16.80;99.90;;;;;;5041874;28;20044;-78
2022/07/19 04:31:38;;;;;;;11.05;5.38;;;16.80;99.90;;;;;;5041553;28;20628;-78
2022/07/19 04:34:04;;;;;;;11.45;6.45;;;16.80;99.90;;;;;;5059017;28;20056;-79
2022/07/19 04:36:29;;;;;;;10.57;5.95;;;16.90;99.90;;;;;;5042378;28;20104;-79
2022/07/19 04:38:55;;;;;;;7.32;5.60;;;17.00;99.90;;;;;;5042169;28;20109;-79
2022/07/19 04:41:21;;;;;;;10.95;5.53;;;17.10;99.90;;;;;;5075651;28;20033;-79
2022/07/19 04:43:46;;;;;;;9.55;5.38;;;17.20;99.90;;;;;;5077082;28;20041;-78
2022/07/19 04:46:12;;;;;;;17.25;6.18;;;17.20;99.90;;;;;;5058805;28;20078;-79
2022/07/19 04:48:38;;;;;;;9.20;5.53;;;17.30;99.90;;;;;;5058328;28;20041;-79
2022/07/19 04:51:03;;;;;;;8.80;4.88;;;17.40;99.90;;;;;;5076177;28;20048;-79
2022/07/19 04:53:30;;;;;;;8.15;5.50;;;17.50;99.90;;;;;;5058605;28;20040;-79
2022/07/19 04:55:56;;;;;;;11.02;5.50;;;17.50;99.90;;;;;;5059083;28;20051;-78
2022/07/19 04:58:21;;;;;;;8.68;5.28;;;17.60;99.90;;;;;;5044606;28;20124;-78
2022/07/19 05:00:47;;;;;;;11.75;5.47;;;17.70;99.90;;;;;;5077249;28;20036;-77
2022/07/19 05:03:12;;;;;;;10.50;6.10;;;17.80;99.90;;;;;;5079248;28;20037;-78
2022/07/19 05:05:38;;;;;;;8.88;5.15;;;17.80;99.90;;;;;;5073022;28;20075;-79
2022/07/19 05:08:04;;;;;;;11.50;5.97;;;18.00;99.90;;;;;;5043233;28;20166;-80
2022/07/19 05:10:30;;;;;;;10.18;6.38;;;18.10;99.90;;;;;;5059495;28;20094;-80
2022/07/19 05:12:55;;;;;;;8.88;5.95;;;18.20;99.90;;;;;;5043408;28;20093;-80
2022/07/19 05:15:21;;;;;;;10.55;5.40;;;18.40;99.90;;;;;;5060120;28;20044;-80
2022/07/19 05:17:46;;;;;;;9.18;6.00;;;18.80;99.90;;;;;;5059913;28;20483;-79
2022/07/19 05:20:15;;;;;;;10.88;6.20;;;19.20;99.90;;;;;;5058883;28;20037;-80
2022/07/19 05:22:40;;;;;;;9.13;5.97;;;19.60;99.90;;;;;;5042805;28;20416;-79
2022/07/19 05:25:07;;;;;;;10.52;6.13;;;20.10;99.90;;;;;;5059138;28;20048;-78
2022/07/19 05:27:32;;;;;;;10.13;6.38;;;20.50;99.90;;;;;;5057463;28;20048;-78
2022/07/19 05:29:58;;;;;;;15.85;6.22;;;20.80;99.90;;;;;;5040558;28;20043;-78
2022/07/19 05:32:24;;;;;;;11.98;6.57;;;21.20;99.90;;;;;;5057790;28;20071;-78
2022/07/19 05:34:50;;;;;;;15.30;6.70;;;21.40;99.90;;;;;;5078741;28;20070;-78
2022/07/19 05:37:15;;;;;;;15.25;6.72;;;21.70;99.90;;;;;;5068603;28;20051;-78
2022/07/19 05:39:41;;;;;;;12.73;6.53;;;22.00;99.90;;;;;;5075951;28;20048;-78
2022/07/19 05:42:07;;;;;;;9.57;5.53;;;22.30;99.90;;;;;;5077690;28;20123;-78
2022/07/19 05:44:32;;;;;;;8.40;5.53;;;22.50;99.90;;;;;;5061523;28;20640;-78
2022/07/19 05:46:58;;;;;;;11.18;5.43;;;22.70;99.90;;;;;;5077415;28;20089;-79
2022/07/19 05:49:24;;;;;;;8.50;5.72;;;22.90;99.90;;;;;;5060988;28;20078;-78
2022/07/19 05:51:49;;;;;;;9.68;6.03;;;23.10;99.90;;;;;;5072652;28;20041;-77
2022/07/19 05:54:17;;;;;;;8.65;5.88;;;23.30;99.90;;;;;;5085999;28;20406;-78
2022/07/19 05:56:43;;;;;;;11.48;5.93;;;23.60;99.90;;;;;;5072586;28;20052;-78
2022/07/19 05:59:08;;;;;;;17.92;5.90;;;23.80;99.90;;;;;;5070585;28;20032;-78
2022/07/19 06:01:34;;;;;;;11.18;5.88;;;24.00;99.90;;;;;;5090454;28;20036;-78
2022/07/19 06:04:00;;;;;;;15.88;7.40;;;24.30;99.90;;;;;;5090551;28;20054;-77
2022/07/19 06:06:29;;;;;;;10.88;5.32;;;24.40;99.90;;;;;;5068083;28;20043;-77
2022/07/19 06:08:56;;;;;;;10.25;5.15;;;24.70;99.90;;;;;;5068690;28;20032;-77
2022/07/19 06:11:22;;;;;;;14.77;5.43;;;24.80;99.90;;;;;;5069039;28;20406;-77
2022/07/19 06:13:49;;;;;;;9.27;5.43;;;25.00;99.90;;;;;;5084354;28;20032;-77
2022/07/19 06:16:14;;;;;;;13.00;6.05;;;25.20;99.90;;;;;;5069790;28;20068;-77
2022/07/19 06:18:40;;;;;;;11.65;5.50;;;25.40;99.90;;;;;;5069751;28;20136;-78
2022/07/19 06:21:11;;;;;;;11.30;5.72;;;25.60;99.90;;;;;;5068581;28;20541;-77
2022/07/19 06:23:37;;;;;;;;;;;25.80;99.90;;;;;;5067703;28;20116;-77
2022/07/19 06:26:05;;;;;;;13.80;6.82;;;25.80;99.90;;;;;;5087291;28;20004;-76
2022/07/19 06:28:31;;;;;;;20.88;12.57;;;26.20;99.90;;;;;;5066642;28;20073;-77
2022/07/19 06:30:57;;;;;;;18.48;10.48;;;26.30;99.90;;;;;;5069389;28;20053;-77
2022/07/19 06:33:23;;;;;;;11.55;5.55;;;26.60;99.90;;;;;;5069156;28;20044;-77
2022/07/19 06:35:48;;;;;;;10.05;5.95;;;26.80;99.90;;;;;;5068852;28;20040;-77
2022/07/19 06:38:15;;;;;;;7.85;4.97;;;27.00;99.90;;;;;;5069153;28;20071;-77
2022/07/19 06:40:41;;;;;;;14.80;5.88;;;27.10;99.90;;;;;;5070403;28;20040;-77
2022/07/19 06:43:07;;;;;;;11.40;5.82;;;27.30;99.90;;;;;;5070187;28;20050;-78
2022/07/19 06:45:33;;;;;;;11.32;5.05;;;27.40;99.90;;;;;;5048753;28;20032;-78
2022/07/19 06:47:58;;;;;;;9.93;5.05;;;27.60;99.90;;;;;;5072927;28;20093;-78
2022/07/19 06:50:24;;;;;;;11.85;5.20;;;27.70;99.90;;;;;;5046933;28;20384;-76
2022/07/19 06:52:49;;;;;;;11.75;5.30;;;27.90;99.90;;;;;;5053137;28;20067;-77
2022/07/19 06:55:15;;;;;;;8.27;4.65;;;28.00;99.70;;;;;;5057100;28;20039;-78
2022/07/19 06:57:43;;;;;;;9.10;4.95;;;28.20;99.40;;;;;;5063869;28;20123;-77
2022/07/19 07:00:09;;;;;;;11.30;5.03;;;28.40;99.60;;;;;;5092221;28;20111;-78
2022/07/19 07:02:39;;;;;;;8.45;4.50;;;28.50;99.20;;;;;;5037710;28;20501;-77
2022/07/19 07:05:07;;;;;;;10.82;4.75;;;28.70;97.30;;;;;;5069902;28;20062;-77
2022/07/19 07:07:33;;;;;;;8.20;4.65;;;28.80;97.20;;;;;;5091443;28;20070;-78
2022/07/19 07:10:01;;;;;;;12.43;4.50;;;29.00;97.00;;;;;;5073304;28;20097;-77
2022/07/19 07:12:27;;;;;;;7.45;4.10;;;29.10;97.40;;;;;;5074059;28;20048;-78
2022/07/19 07:14:53;;;;;;;9.18;4.28;;;29.30;97.40;;;;;;5057300;28;20403;-77
2022/07/19 07:17:19;;;;;;;9.68;4.28;;;29.40;96.90;;;;;;5073433;28;20032;-77
2022/07/19 07:19:44;;;;;;;8.05;4.35;;;29.60;96.50;;;;;;5072519;28;20666;-78
2022/07/19 07:22:13;;;;;;;7.38;3.83;;;29.70;96.30;;;;;;5057114;28;20489;-78
2022/07/19 07:24:42;;;;;;;13.48;3.35;;;29.90;94.90;;;;;;5051261;28;20044;-77
2022/07/19 07:27:07;;;;;;;7.35;3.25;;;30.00;92.80;;;;;;5047351;28;20040;-77
2022/07/19 07:29:33;;;;;;;11.57;4.28;;;30.30;90.80;;;;;;5056957;28;20039;-78
2022/07/19 07:31:59;;;;;;;12.52;3.50;;;30.50;85.50;;;;;;5073618;28;20036;-78
2022/07/19 07:34:25;;;;;;;11.43;3.67;;;30.70;82.20;;;;;;5072701;28;20096;-79
2022/07/19 07:36:50;;;;;;;4.95;3.60;;;30.70;82.80;;;;;;5069456;28;20040;-79
2022/07/19 07:39:16;;;;;;;8.30;3.35;;;30.80;81.20;;;;;;5089639;28;20495;-79
2022/07/19 07:41:42;;;;;;;8.90;3.30;;;30.90;81.90;;;;;;5070394;28;20241;-79
2022/07/19 07:44:08;;;;;;;7.10;2.60;;;31.20;78.80;;;;;;5056810;28;20055;-79
2022/07/19 07:46:34;;;;;;;5.07;2.47;;;31.30;77.10;;;;;;5091838;28;20044;-79
2022/07/19 07:49:00;;;;;;;7.43;2.60;;;31.50;75.00;;;;;;5053858;28;20043;-79
2022/07/19 07:51:25;;;;;;;6.10;2.85;;;31.70;74.50;;;;;;5051842;28;20036;-79
2022/07/19 07:53:51;;;;;;;15.52;2.60;;;31.90;73.50;;;;;;5091292;28;20071;-80
2022/07/19 07:56:17;;;;;;;11.23;2.42;;;32.10;72.70;;;;;;5082596;28;20467;-80
2022/07/19 07:58:42;;;;;;;9.30;2.78;;;32.30;70.70;;;;;;5082570;28;20044;-77
2022/07/19 08:01:08;;;;;;;4.90;2.78;;;32.50;71.30;;;;;;5065067;28;20086;-79
2022/07/19 08:03:34;;;;;;;8.75;2.50;;;32.70;70.20;;;;;;5037576;28;20037;-79
2022/07/19 08:05:59;;;;;;;5.40;2.80;;;32.80;69.60;;;;;;5054462;28;20094;-79
2022/07/19 08:08:28;;;;;;;4.05;2.25;;;32.90;67.60;;;;;;5081723;28;20032;-79
2022/07/19 08:10:55;;;;;;;7.88;2.25;;;33.00;66.80;;;;;;5069697;28;20507;-79
2022/07/19 08:13:21;;;;;;;6.15;2.25;;;33.20;64.20;;;;;;5052742;28;20028;-79
2022/07/19 08:15:47;;;;;;;5.78;2.60;;;33.30;65.50;;;;;;5051997;28;20107;-79
2022/07/19 08:18:12;;;;;;;11.57;2.30;;;33.30;62.40;;;;;;5086780;28;20036;-79
2022/07/19 08:20:38;;;;;;;10.60;2.30;;;33.40;61.20;;;;;;5061463;28;20483;-79
2022/07/19 08:23:04;;;;;;;4.70;2.20;;;33.50;61.50;;;;;;5077999;28;20036;-80
2022/07/19 08:25:29;;;;;;;5.43;1.98;;;33.70;60.50;;;;;;5068497;28;20127;-80
2022/07/19 08:27:55;;;;;;;6.97;3.60;;;33.80;60.80;;;;;;5086006;28;20426;-79
2022/07/19 08:30:21;;;;;;;5.32;2.53;;;33.90;60.40;;;;;;5085212;28;20435;-78
2022/07/19 08:32:46;;;;;;;3.03;2.30;;;33.90;59.90;;;;;;5068168;28;20047;-79
2022/07/19 08:35:12;;;;;;;5.88;2.08;;;33.90;60.30;;;;;;5071190;28;20131;-79
2022/07/19 08:37:38;;;;;;;7.15;2.00;;;33.90;59.20;;;;;;5090543;28;20518;-79
2022/07/19 08:40:05;;;;;;;4.80;2.00;;;34.00;59.40;;;;;;5072365;28;20166;-79
2022/07/19 08:42:32;;;;;;;5.00;2.58;;;34.10;58.10;;;;;;5072836;28;20436;-78
2022/07/19 08:45:01;;;;;;;5.30;2.15;;;34.20;57.60;;;;;;5091338;28;20036;-79
2022/07/19 08:47:29;;;;;;;6.50;1.70;;;34.40;57.10;;;;;;5054718;28;20098;-79
2022/07/19 08:49:57;;;;;;;4.32;2.22;;;34.50;56.30;;;;;;5089493;28;20132;-79
2022/07/19 08:52:24;;;;;;;4.45;2.15;;;34.50;56.40;;;;;;5071549;28;20541;-79
2022/07/19 08:54:49;;;;;;;6.28;2.55;;;34.40;55.80;;;;;;5070976;28;20100;-79
2022/07/19 08:59:59;;;;;;;4.72;1.90;;;34.50;55.30;;;;;;5071013;28;20055;-79
2022/07/19 09:02:25;;;;;;;6.93;2.13;;;34.60;56.30;;;;;;5074772;28;20032;-79
2022/07/19 09:05:08;;;;;;;4.50;1.75;;;34.60;55.70;;;;;;5053600;28;20055;-79
2022/07/19 09:07:35;;;;;;;4.07;1.88;;;34.60;55.00;;;;;;5073330;28;20052;-79
2022/07/19 09:10:18;;;;;;;6.75;2.22;;;34.60;55.40;;;;;;5056649;28;20040;-80
2022/07/19 09:13:03;;;;;;;5.53;2.08;;;34.70;54.30;;;;;;5049765;28;20068;-79
2022/07/19 09:15:42;;;;;;;5.18;1.73;;;34.70;52.50;;;;;;5074878;28;20039;-79
2022/07/19 09:18:28;;;;;;;6.10;2.45;;;34.80;53.70;;;;;;5057447;28;20044;-79
2022/07/19 09:21:00;;;;;;;5.22;2.38;;;34.90;54.00;;;;;;5074485;28;20051;-79
2022/07/19 09:23:26;;;;;;;6.85;2.53;;;34.90;54.30;;;;;;5094104;28;20081;-79
2022/07/19 09:25:55;;;;;;;3.42;2.10;;;34.90;52.50;;;;;;5093225;28;20036;-79
2022/07/19 09:28:22;;;;;;;5.75;1.90;;;35.00;52.10;;;;;;5065607;28;20032;-79
2022/07/19 09:30:50;;;;;;;6.60;2.17;;;35.20;51.80;;;;;;5090149;28;20036;-81
2022/07/19 09:33:18;;;;;;;3.28;2.00;;;35.20;50.80;;;;;;5076458;28;20044;-81
2022/07/19 09:35:56;;;;;;;4.25;1.80;;;35.30;51.10;;;;;;5092283;28;20043;-81
2022/07/19 09:38:30;;;;;;;5.40;1.90;;;35.20;50.60;;;;;;5085942;28;20089;-82
2022/07/19 09:41:20;;;;;;;2.83;1.58;;;35.30;50.70;;;;;;5112013;28;20036;-83
2022/07/19 09:43:53;;;;;;;5.88;2.22;;;35.40;49.30;;;;;;5102325;28;20112;-80
2022/07/19 09:46:31;;;;;;;4.55;2.22;;;35.40;50.60;;;;;;5115555;28;20093;-79
2022/07/19 09:49:17;;;;;;;4.22;1.70;;;35.50;52.00;;;;;;5083297;28;20055;-81
2022/07/19 09:51:47;;;;;;;8.85;2.20;;;35.60;50.20;;;;;;5057743;28;20039;-80
2022/07/19 09:54:18;;;;;;;4.60;2.00;;;35.70;52.40;;;;;;5091333;28;20043;-80
2022/07/19 09:56:46;;;;;;;6.57;2.05;;;35.70;50.40;;;;;;5075687;28;20040;-80
2022/07/19 09:59:13;;;;;;;3.38;1.50;;;35.80;50.00;;;;;;5090677;28;20036;-80
2022/07/19 10:01:39;;;;;;;4.60;2.10;;;35.90;51.10;;;;;;5091541;28;20410;-81
2022/07/19 10:04:12;;;;;;;3.03;1.60;;;35.90;50.70;;;;;;5073439;28;20078;-80
2022/07/19 10:06:39;;;;;;;4.00;1.75;;;35.80;48.90;;;;;;5091135;28;20122;-80
2022/07/19 10:09:07;;;;;;;5.68;1.83;;;35.70;50.00;;;;;;5092470;28;20032;-81
2022/07/19 10:11:33;;;;;;;3.55;1.85;;;35.80;48.20;;;;;;5093078;28;20043;-79
2022/07/19 10:13:59;;;;;;;5.25;1.73;;;35.80;49.10;;;;;;5075548;28;20052;-83
2022/07/19 10:16:41;;;;;;;1.95;1.60;;;35.90;48.90;;;;;;5098662;28;20032;-83
2022/07/19 10:19:15;;;;;;;7.40;2.25;;;36.00;49.20;;;;;;5091272;28;20177;-83
2022/07/19 10:21:42;;;;;;;4.57;1.67;;;36.00;49.80;;;;;;5066512;28;20123;-81
2022/07/19 10:24:08;;;;;;;4.25;1.80;;;36.10;48.20;;;;;;5085299;28;20388;-80
2022/07/19 10:26:42;;;;;;;5.32;2.08;;;36.20;49.40;;;;;;5085815;28;20032;-80
2022/07/19 10:29:14;;;;;;;4.70;1.90;;;36.10;47.70;;;;;;5089056;28;20067;-80
2022/07/19 10:31:40;;;;;;;4.95;1.95;;;36.10;47.50;;;;;;5074070;28;20046;-80
2022/07/19 10:34:09;;;;;;;5.72;2.03;;;36.10;48.80;;;;;;5057980;28;20125;-84
2022/07/19 10:36:42;;;;;;;6.47;1.90;;;36.10;47.40;;;;;;5059099;28;20449;-79
2022/07/19 10:39:29;;;;;;;5.00;2.03;;;36.10;49.10;;;;;;5062990;28;20135;-80
2022/07/19 10:42:16;;;;;;;8.38;1.90;;;36.20;46.40;;;;;;5073408;28;20058;-80
2022/07/19 10:44:57;;;;;;;4.20;1.55;;;36.10;48.30;;;;;;5084300;28;20036;-80
2022/07/19 10:47:32;;;;;;;4.10;1.90;;;36.10;46.20;;;;;;5093250;28;20051;-80
2022/07/19 10:50:02;;;;;;;4.18;1.85;;;36.20;47.20;;;;;;5090596;28;20040;-79
2022/07/19 10:52:35;;;;;;;4.75;1.80;;;36.20;47.70;;;;;;5058241;28;20052;-80
2022/07/19 10:55:25;;;;;;;3.72;1.70;;;36.20;47.80;;;;;;5095106;28;20087;-79
2022/07/19 10:57:52;;;;;;;5.50;1.75;;;36.40;46.40;;;;;;5058787;28;20051;-80
2022/07/19 11:00:28;;;;;;;4.50;1.83;;;36.40;45.90;;;;;;5091443;28;20402;-80
2022/07/19 11:03:22;;;;;;;5.57;1.60;;;36.40;46.10;;;;;;5075121;28;20039;-80
2022/07/19 11:05:55;;;;;;;5.20;1.73;;;36.50;44.90;;;;;;5073773;28;20058;-80
2022/07/19 11:08:36;;;;;;;7.35;2.63;;;36.60;45.70;;;;;;5082817;28;20043;-82
2022/07/19 11:11:18;;;;;;;7.57;2.22;;;36.70;48.60;;;;;;5063477;28;20139;-82
2022/07/19 11:13:47;;;;;;;3.58;1.30;;;36.70;41.80;;;;;;5089325;28;20428;-82
2022/07/19 11:16:13;;;;;;;7.05;2.17;;;36.70;45.10;;;;;;5055280;28;20044;-81
2022/07/19 11:18:40;;;;;;;2.58;1.35;;;36.80;43.70;;;;;;5087257;28;20118;-80
2022/07/19 11:21:06;;;;;;;4.43;1.45;;;37.00;42.00;;;;;;5072316;28;20403;-82
2022/07/19 11:23:35;;;;;;;4.90;1.58;;;37.00;44.00;;;;;;5070028;28;20040;-81
2022/07/19 11:26:11;;;;;;;4.00;1.60;;;36.90;43.30;;;;;;5072992;28;20040;-81
2022/07/19 11:28:38;;;;;;;4.18;1.17;;;36.90;41.90;;;;;;5059114;28;20169;-82
2022/07/19 11:31:19;;;;;;;5.65;1.58;;;37.00;41.40;;;;;;5072718;28;20093;-81
2022/07/19 11:33:46;;;;;;;6.28;1.40;;;37.10;40.10;;;;;;5071223;28;20043;-81
2022/07/19 11:36:15;;;;;;;17.17;4.03;;;36.90;40.90;;;;;;5064287;28;20049;-81
2022/07/19 11:38:46;;;;;;;4.63;1.30;;;36.90;41.80;;;;;;5071001;28;20448;-81
2022/07/19 11:41:27;;;;;;;7.70;1.80;;;36.90;42.00;;;;;;5053038;28;20036;-80
2022/07/19 11:44:03;;;;;;;4.85;1.63;;;36.90;44.10;;;;;;5059635;28;20126;-81
2022/07/19 11:46:34;;;;;;;3.53;1.67;;;37.00;39.70;;;;;;5086634;28;20518;-81
2022/07/19 11:49:02;;;;;;;5.32;1.70;;;37.20;40.40;;;;;;5082992;28;20510;-80
2022/07/19 11:51:28;;;;;;;3.22;1.50;;;37.30;40.90;;;;;;5095439;28;20115;-79
2022/07/19 11:53:58;;;;;;;2.75;1.15;;;37.40;41.30;;;;;;5074041;28;20047;-81
2022/07/19 11:56:25;;;;;;;4.40;1.70;;;37.40;41.20;;;;;;5074044;28;20048;-80
2022/07/19 11:58:52;;;;;;;6.03;1.50;;;37.40;40.10;;;;;;5073333;28;20036;-79
2022/07/19 12:01:30;;;;;;;4.70;1.55;;;37.50;39.90;;;;;;5070565;28;20032;-79
2022/07/19 12:04:01;;;;;;;3.63;1.55;;;37.60;39.50;;;;;;5090250;28;20036;-79
2022/07/19 12:06:36;;;;;;;;;;;37.60;42.60;;;;;;5075618;28;20124;-81
2022/07/19 12:09:07;;;;;;;3.05;1.38;;;37.50;41.00;;;;;;5067997;28;20692;-80
2022/07/19 12:11:48;;;;;;;4.32;1.45;;;37.50;40.30;;;;;;5088239;28;20096;-79
2022/07/19 12:14:22;;;;;;;4.20;1.30;;;37.50;39.60;;;;;;5074074;28;20095;-78
2022/07/19 12:17:15;;;;;;;4.95;1.83;;;37.50;38.00;;;;;;5090123;28;20065;-78
2022/07/19 12:19:45;;;;;;;3.40;1.33;;;37.50;39.80;;;;;;5047281;28;20044;-80
2022/07/19 12:22:37;;;;;;;1.88;1.10;;;37.60;39.10;;;;;;5071191;28;20123;-79
2022/07/19 12:25:05;;;;;;;1.83;1.10;;;37.50;36.90;;;;;;5067920;28;20487;-80
2022/07/19 12:27:32;;;;;;;4.18;1.58;;;37.60;37.90;;;;;;5050348;28;20047;-79
2022/07/19 12:29:58;;;;;;;2.47;1.27;;;37.80;39.60;;;;;;5065935;28;20044;-81
2022/07/19 12:32:27;;;;;;;3.33;1.30;;;37.90;39.70;;;;;;5067049;28;20036;-79
2022/07/19 12:34:57;;;;;;;3.03;0.88;;;37.90;37.50;;;;;;5064200;28;20039;-82
2022/07/19 12:37:35;;;;;;;2.88;1.10;;;38.00;36.70;;;;;;5065649;28;20411;-82
2022/07/19 12:40:09;;;;;;;4.47;1.13;;;38.20;38.10;;;;;;5078011;28;20035;-81
2022/07/19 12:42:59;;;;;;;9.45;1.55;;;38.30;37.40;;;;;;5068753;28;20383;-81
2022/07/19 12:45:36;;;;;;;4.63;1.30;;;38.20;36.30;;;;;;5089766;28;20035;-81
2022/07/19 12:48:03;;;;;;;2.70;1.17;;;38.10;36.40;;;;;;5071162;28;20044;-81
2022/07/19 12:50:35;;;;;;;4.93;1.33;;;38.00;38.00;;;;;;5069347;28;21198;-80
2022/07/19 12:53:03;;;;;;;1.95;1.30;;;38.00;37.90;;;;;;5088313;28;20050;-81